Time;durP1;ratioP1;P1;durP2;ratioP2;P2;SDS_P1;SDS_P2;PMS_P1;PMS_P2;Temp;Humidity;BMP_temperature;BMP_pressure;BME280_temperature;BME280_humidity;BME280_pressure;Samples;Min_cycle;Max_cycle;Signal;HPM_P1;HPM_P2
2022/09/05 00:00:49;;;;;;;4.88;3.72;;;;;;;;;;5018554;28;20257;-74
2022/09/05 00:03:30;;;;;;;3.03;2.60;;;;;;;;;;5009240;28;20167;-73
2022/09/05 00:05:59;;;;;;;2.83;2.28;;;;;;;;;;5015401;28;20217;-74
2022/09/05 00:08:24;;;;;;;3.15;2.70;;;;;;;;;;5019480;28;20191;-74
2022/09/05 00:10:49;;;;;;;2.83;2.50;;;;;;;;;;5009398;28;20197;-73
2022/09/05 00:13:18;;;;;;;6.40;2.42;;;;;;;;;;5013389;28;20657;-74
2022/09/05 00:16:02;;;;;;;5.22;2.55;;;;;;;;;;5025244;28;20455;-74
2022/09/05 00:18:36;;;;;;;2.85;2.60;;;;;;;;;;5010015;28;20183;-72
2022/09/05 00:21:16;;;;;;;3.25;2.83;;;;;;;;;;5012518;28;20171;-72
2022/09/05 00:23:51;;;;;;;4.45;2.80;;;;;;;;;;5027790;28;20185;-72
2022/09/05 00:26:27;;;;;;;4.20;3.47;;;;;;;;;;5000897;28;20195;-72
2022/09/05 00:29:00;;;;;;;4.70;3.22;;;;;;;;;;5003994;28;20679;-72
2022/09/05 00:31:38;;;;;;;4.78;2.85;;;;;;;;;;5014606;28;20202;-74
2022/09/05 00:34:21;;;;;;;3.38;2.78;;;;;;;;;;5015165;28;20249;-72
2022/09/05 00:36:53;;;;;;;3.70;3.25;;;;;;;;;;5021878;28;20207;-74
2022/09/05 00:39:28;;;;;;;3.40;3.00;;;;;;;;;;5013925;28;20179;-74
2022/09/05 00:41:54;;;;;;;6.97;4.25;;;;;;;;;;5008702;28;20183;-74
2022/09/05 00:44:21;;;;;;;4.53;3.70;;;;;;;;;;4998500;28;20171;-74
2022/09/05 00:46:55;;;;;;;5.28;3.67;;;;;;;;;;5012084;28;20249;-74
2022/09/05 00:49:27;;;;;;;5.35;4.22;;;;;;;;;;5009966;28;20194;-75
2022/09/05 00:51:56;;;;;;;4.70;4.00;;;;;;;;;;5012373;28;20186;-74
2022/09/05 00:54:21;;;;;;;5.97;4.25;;;;;;;;;;5012014;28;20183;-74
2022/09/05 00:56:56;;;;;;;3.80;3.47;;;;;;;;;;5009382;28;20554;-74
2022/09/05 00:59:21;;;;;;;4.97;4.35;;;;;;;;;;5013908;28;20927;-73
2022/09/05 01:01:52;;;;;;;5.73;4.00;;;;;;;;;;5007793;28;20182;-74
2022/09/05 01:04:36;;;;;;;5.55;4.22;;;;;;;;;;5009196;28;20460;-74
2022/09/05 01:07:27;;;;;;;5.43;4.25;;;;;;;;;;5010819;28;20229;-74
2022/09/05 01:09:52;;;;;;;4.70;4.18;;;;;;;;;;5005734;28;20223;-74
2022/09/05 01:12:45;;;;;;;6.22;4.13;;;;;;;;;;5012637;28;20206;-73
2022/09/05 01:15:17;;;;;;;6.50;4.63;;;;;;;;;;5011670;28;20471;-73
2022/09/05 01:17:46;;;;;;;6.88;4.50;;;;;;;;;;5010254;28;20561;-74
2022/09/05 01:20:31;;;;;;;5.22;4.18;;;;;;;;;;5003033;28;20548;-75
2022/09/05 01:22:59;;;;;;;6.28;5.35;;;;;;;;;;5004802;28;20281;-72
2022/09/05 01:25:30;;;;;;;5.72;4.50;;;;;;;;;;5006027;28;20191;-74
2022/09/05 01:27:56;;;;;;;6.75;4.55;;;;;;;;;;5009471;28;20206;-74
2022/09/05 01:30:21;;;;;;;5.03;4.53;;;;;;;;;;5011293;28;20211;-74
2022/09/05 01:32:55;;;;;;;4.13;3.72;;;;;;;;;;5009725;28;20564;-73
2022/09/05 01:35:26;;;;;;;5.82;4.25;;;;;;;;;;5009410;28;20286;-74
2022/09/05 01:38:11;;;;;;;4.70;4.28;;;;;;;;;;5006469;28;20329;-74
2022/09/05 01:40:51;;;;;;;5.70;4.55;;;;;;;;;;5009857;28;20202;-74
2022/09/05 01:43:38;;;;;;;5.25;4.30;;;;;;;;;;5011819;28;20187;-74
2022/09/05 01:46:08;;;;;;;6.35;4.70;;;;;;;;;;5006788;28;20553;-73
2022/09/05 01:48:42;;;;;;;4.80;4.32;;;;;;;;;;5013245;28;20211;-74
2022/09/05 01:51:25;;;;;;;6.05;3.85;;;;;;;;;;5009778;28;20190;-74
2022/09/05 01:53:59;;;;;;;5.05;4.22;;;;;;;;;;4999624;28;20179;-73
2022/09/05 01:56:28;;;;;;;5.05;4.13;;;;;;;;;;5009336;28;20564;-74
2022/09/05 01:58:53;;;;;;;7.15;4.50;;;;;;;;;;5012276;28;20548;-73
2022/09/05 02:01:30;;;;;;;8.10;4.80;;;;;;;;;;5007291;28;20175;-73
2022/09/05 02:04:06;;;;;;;7.72;5.45;;;;;;;;;;5002520;28;20421;-73
2022/09/05 02:06:46;;;;;;;6.80;4.80;;;;;;;;;;5010399;28;20217;-73
2022/09/05 02:09:17;;;;;;;5.35;4.22;;;;;;;;;;5009631;28;20179;-73
2022/09/05 02:11:44;;;;;;;6.13;5.05;;;;;;;;;;5010625;28;20183;-73
2022/09/05 02:14:28;;;;;;;4.78;4.20;;;;;;;;;;5011365;28;20191;-73
2022/09/05 02:16:54;;;;;;;6.57;5.07;;;;;;;;;;5003706;28;20188;-73
2022/09/05 02:19:27;;;;;;;6.05;4.43;;;;;;;;;;5006281;28;20228;-74
2022/09/05 02:21:57;;;;;;;7.25;4.60;;;;;;;;;;5011608;28;20202;-74
2022/09/05 02:24:27;;;;;;;4.38;3.97;;;;;;;;;;5009544;28;20171;-74
2022/09/05 02:27:06;;;;;;;6.95;5.05;;;;;;;;;;5004774;28;20266;-73
2022/09/05 02:29:37;;;;;;;6.10;5.32;;;;;;;;;;5007824;28;20206;-74
2022/09/05 02:32:17;;;;;;;6.45;5.30;;;;;;;;;;5000175;28;20172;-74
2022/09/05 02:34:52;;;;;;;7.75;5.10;;;;;;;;;;5008994;28;20175;-74
2022/09/05 02:37:22;;;;;;;8.77;6.13;;;;;;;;;;5011941;28;20261;-74
2022/09/05 02:39:53;;;;;;;7.05;5.32;;;;;;;;;;5011113;28;20181;-74
2022/09/05 02:42:25;;;;;;;7.10;4.85;;;;;;;;;;5009220;28;20175;-74
2022/09/05 02:44:54;;;;;;;6.50;4.53;;;;;;;;;;5009498;28;20582;-72
2022/09/05 02:47:22;;;;;;;6.88;5.43;;;;;;;;;;5005226;28;20262;-75
2022/09/05 02:50:05;;;;;;;6.13;5.53;;;;;;;;;;5004910;28;20182;-74
2022/09/05 02:52:34;;;;;;;8.15;6.07;;;;;;;;;;5010317;28;20171;-74
2022/09/05 02:55:00;;;;;;;7.65;6.70;;;;;;;;;;5009859;28;20259;-75
2022/09/05 02:57:28;;;;;;;8.25;5.85;;;;;;;;;;5009593;28;20262;-74
2022/09/05 03:00:06;;;;;;;6.72;5.80;;;;;;;;;;5011135;28;20267;-74
2022/09/05 03:02:41;;;;;;;6.35;5.65;;;;;;;;;;5003410;28;20178;-74
2022/09/05 03:05:07;;;;;;;7.65;6.10;;;;;;;;;;5006864;28;20202;-74
2022/09/05 03:07:47;;;;;;;6.93;6.22;;;;;;;;;;5003694;28;20274;-74
2022/09/05 03:10:25;;;;;;;7.13;6.13;;;;;;;;;;5010124;28;20424;-74
2022/09/05 03:13:05;;;;;;;7.78;6.55;;;;;;;;;;5009221;28;20615;-75
2022/09/05 03:15:57;;;;;;;6.75;5.57;;;;;;;;;;5009291;28;20206;-72
2022/09/05 03:18:30;;;;;;;7.65;6.88;;;;;;;;;;5021961;28;20178;-72
2022/09/05 03:21:04;;;;;;;8.50;7.07;;;;;;;;;;5010527;28;20186;-72
2022/09/05 03:23:37;;;;;;;8.48;6.75;;;;;;;;;;4998737;28;20264;-75
2022/09/05 03:26:17;;;;;;;7.15;6.45;;;;;;;;;;5006944;28;20199;-72
2022/09/05 03:28:52;;;;;;;6.90;6.13;;;;;;;;;;5003054;28;20751;-72
2022/09/05 03:31:17;;;;;;;7.85;6.88;;;;;;;;;;5010170;28;20647;-73
2022/09/05 03:33:51;;;;;;;7.93;7.13;;;;;;;;;;5011720;28;20210;-74
2022/09/05 03:36:31;;;;;;;10.45;7.43;;;;;;;;;;5007576;28;20461;-74
2022/09/05 03:39:22;;;;;;;7.82;6.78;;;;;;;;;;5011499;28;20202;-74
2022/09/05 03:41:55;;;;;;;8.73;7.68;;;;;;;;;;5006783;28;20722;-74
2022/09/05 03:44:43;;;;;;;10.45;7.53;;;;;;;;;;5007760;28;20182;-74
2022/09/05 03:47:14;;;;;;;8.82;7.35;;;;;;;;;;5011237;28;20178;-74
2022/09/05 03:49:50;;;;;;;7.53;6.72;;;;;;;;;;5008855;28;20186;-75
2022/09/05 03:52:42;;;;;;;10.65;7.80;;;;;;;;;;5007332;28;20162;-74
2022/09/05 03:55:26;;;;;;;12.68;8.20;;;;;;;;;;5001748;28;20233;-74
2022/09/05 03:58:15;;;;;;;9.35;7.53;;;;;;;;;;5011241;28;20167;-74
2022/09/05 04:00:41;;;;;;;10.75;8.63;;;;;;;;;;5009166;28;20175;-74
2022/09/05 04:03:29;;;;;;;12.73;8.38;;;;;;;;;;5010503;28;20178;-74
2022/09/05 04:06:05;;;;;;;10.43;8.88;;;;;;;;;;5008960;28;20221;-72
2022/09/05 04:08:38;;;;;;;10.13;8.63;;;;;;;;;;5001951;28;20544;-72
2022/09/05 04:11:07;;;;;;;11.88;9.35;;;;;;;;;;5007708;28;20218;-73
2022/09/05 04:13:44;;;;;;;14.15;9.25;;;;;;;;;;5008019;28;20179;-75
2022/09/05 04:16:15;;;;;;;9.45;8.52;;;;;;;;;;5010236;28;20281;-75
2022/09/05 04:18:43;;;;;;;11.02;9.32;;;;;;;;;;5006359;28;20245;-74
2022/09/05 04:21:26;;;;;;;11.50;9.20;;;;;;;;;;5000867;28;20251;-74
2022/09/05 04:23:59;;;;;;;13.07;10.52;;;;;;;;;;5008257;28;20190;-74
2022/09/05 04:26:46;;;;;;;11.60;9.73;;;;;;;;;;5009053;28;20195;-74
2022/09/05 04:29:14;;;;;;;11.77;10.48;;;;;;;;;;5010475;28;20226;-73
2022/09/05 04:31:46;;;;;;;13.00;10.02;;;;;;;;;;5009638;28;20183;-73
2022/09/05 04:34:30;;;;;;;11.95;8.75;;;;;;;;;;5006692;28;20574;-74
2022/09/05 04:36:59;;;;;;;10.15;8.77;;;;;;;;;;5009150;28;20193;-74
2022/09/05 04:39:25;;;;;;;13.70;10.00;;;;;;;;;;5012833;28;20652;-74
2022/09/05 04:42:11;;;;;;;12.57;11.00;;;;;;;;;;5008111;28;20206;-74
2022/09/05 04:44:40;;;;;;;12.52;10.05;;;;;;;;;;5007072;28;20248;-74
2022/09/05 04:47:14;;;;;;;12.48;8.52;;;;;;;;;;5012237;28;20225;-73
2022/09/05 04:49:40;;;;;;;10.43;8.98;;;;;;;;;;5013285;28;20182;-74
2022/09/05 04:52:05;;;;;;;12.93;10.02;;;;;;;;;;5008523;28;20532;-73
2022/09/05 04:54:30;;;;;;;12.18;10.05;;;;;;;;;;5010720;28;20182;-73
2022/09/05 04:57:08;;;;;;;11.20;10.10;;;;;;;;;;5014024;28;20250;-73
2022/09/05 04:59:36;;;;;;;14.38;11.07;;;;;;;;;;5012100;28;20552;-73
2022/09/05 05:02:05;;;;;;;12.88;10.88;;;;;;;;;;5011858;28;20732;-73
2022/09/05 05:04:30;;;;;;;12.52;10.73;;;;;;;;;;5011396;28;20266;-73
2022/09/05 05:06:59;;;;;;;12.95;10.73;;;;;;;;;;5012232;28;20648;-73
2022/09/05 05:09:46;;;;;;;13.68;10.70;;;;;;;;;;5005827;28;20179;-74
2022/09/05 05:12:44;;;;;;;12.52;10.38;;;;;;;;;;5009032;28;20205;-74
2022/09/05 05:15:16;;;;;;;12.32;10.95;;;;;;;;;;4982971;28;20210;-74
2022/09/05 05:17:52;;;;;;;13.95;10.85;;;;;;;;;;5011249;28;20171;-74
2022/09/05 05:20:23;;;;;;;15.55;12.07;;;;;;;;;;5013353;28;20181;-75
2022/09/05 05:23:01;;;;;;;13.35;11.02;;;;;;;;;;5010926;28;20178;-74
2022/09/05 05:25:27;;;;;;;15.15;10.45;;;;;;;;;;5012285;28;20203;-73
2022/09/05 05:28:12;;;;;;;17.20;11.10;;;;;;;;;;5011413;28;20179;-72
2022/09/05 05:30:39;;;;;;;16.33;11.82;;;;;;;;;;5011810;28;20249;-74
2022/09/05 05:33:22;;;;;;;14.65;11.43;;;;;;;;;;5011159;28;20189;-74
2022/09/05 05:35:48;;;;;;;12.73;10.77;;;;;;;;;;5010838;28;20282;-75
2022/09/05 05:38:16;;;;;;;14.38;11.40;;;;;;;;;;5012511;28;20267;-74
2022/09/05 05:40:49;;;;;;;12.82;11.50;;;;;;;;;;5007929;28;20175;-74
2022/09/05 05:43:15;;;;;;;13.82;11.25;;;;;;;;;;5010342;28;20690;-74
2022/09/05 05:45:41;;;;;;;13.75;11.35;;;;;;;;;;5010134;28;20206;-74
2022/09/05 05:48:26;;;;;;;14.10;11.70;;;;;;;;;;5010796;28;20571;-74
2022/09/05 05:51:02;;;;;;;15.25;12.45;;;;;;;;;;5008343;28;20202;-74
2022/09/05 05:53:45;;;;;;;21.00;12.13;;;;;;;;;;5011737;28;20694;-73
2022/09/05 05:56:19;;;;;;;14.18;12.18;;;;;;;;;;5010725;28;20214;-74
2022/09/05 05:58:52;;;;;;;13.52;11.15;;;;;;;;;;5011861;28;20253;-74
2022/09/05 06:01:46;;;;;;;12.65;11.35;;;;;;;;;;5006839;28;20175;-74
2022/09/05 06:04:15;;;;;;;12.38;10.88;;;;;;;;;;5010679;28;20203;-74
2022/09/05 06:07:03;;;;;;;12.90;10.80;;;;;;;;;;5009332;28;20258;-72
2022/09/05 06:09:43;;;;;;;15.05;11.00;;;;;;;;;;4995666;28;20220;-74
2022/09/05 06:12:15;;;;;;;13.07;11.50;;;;;;;;;;5010243;28;20186;-74
2022/09/05 06:14:41;;;;;;;12.90;11.43;;;;;;;;;;5010187;28;20266;-74
2022/09/05 06:17:12;;;;;;;12.63;11.33;;;;;;;;;;5009227;28;20261;-74
2022/09/05 06:19:37;;;;;;;13.90;12.45;;;;;;;;;;5009565;28;20420;-73
2022/09/05 06:22:21;;;;;;;13.10;11.50;;;;;;;;;;5007938;28;20194;-72
2022/09/05 06:24:46;;;;;;;12.80;11.30;;;;;;;;;;5006231;28;20412;-72
2022/09/05 06:27:18;;;;;;;12.90;11.60;;;;;;;;;;5009957;28;20175;-72
2022/09/05 06:29:54;;;;;;;12.98;11.15;;;;;;;;;;5010332;28;20949;-72
2022/09/05 06:32:25;;;;;;;12.98;11.48;;;;;;;;;;5009262;28;20174;-72
2022/09/05 06:35:02;;;;;;;14.75;11.27;;;;;;;;;;5012650;28;20191;-72
2022/09/05 06:37:39;;;;;;;12.73;11.38;;;;;;;;;;5012122;28;20195;-73
2022/09/05 06:40:16;;;;;;;13.82;10.75;;;;;;;;;;5012021;28;20189;-72
2022/09/05 06:42:47;;;;;;;13.68;11.10;;;;;;;;;;5011588;28;20177;-72
2022/09/05 06:45:25;;;;;;;13.25;10.80;;;;;;;;;;5010805;28;20198;-72
2022/09/05 06:47:53;;;;;;;11.65;10.45;;;;;;;;;;5012235;28;20174;-73
2022/09/05 06:50:20;;;;;;;11.23;9.68;;;;;;;;;;5011919;28;20175;-73
2022/09/05 06:52:57;;;;;;;11.30;9.95;;;;;;;;;;5011864;28;20229;-72
2022/09/05 06:55:39;;;;;;;12.52;10.15;;;;;;;;;;5012198;28;20778;-72
2022/09/05 06:58:05;;;;;;;11.15;9.95;;;;;;;;;;5011627;28;20755;-72
2022/09/05 07:00:47;;;;;;;14.07;10.63;;;;;;;;;;5011854;28;20262;-72
2022/09/05 07:03:26;;;;;;;11.23;9.75;;;;;;;;;;5000396;28;20420;-72
2022/09/05 07:06:09;;;;;;;10.18;9.18;;;;;;;;;;5003614;28;20265;-72
2022/09/05 07:08:38;;;;;;;11.57;10.40;;;;;;;;;;5011360;28;20198;-72
2022/09/05 07:11:11;;;;;;;12.77;10.00;;;;;;;;;;5007598;28;20321;-73
2022/09/05 07:13:55;;;;;;;11.73;8.93;;;;;;;;;;5011035;28;20182;-72
2022/09/05 07:16:26;;;;;;;10.35;9.25;;;;;;;;;;5010698;28;20198;-72
2022/09/05 07:19:04;;;;;;;11.88;8.60;;;;;;;;;;5008077;28;20641;-72
2022/09/05 07:21:34;;;;;;;13.48;10.00;;;;;;;;;;5006463;28;20183;-73
2022/09/05 07:24:00;;;;;;;12.48;9.85;;;;;;;;;;5009614;28;20175;-73
2022/09/05 07:26:26;;;;;;;8.85;7.93;;;;;;;;;;5007042;28;20258;-72
2022/09/05 07:28:53;;;;;;;10.52;9.40;;;;;;;;;;5012320;28;20258;-73
2022/09/05 07:31:21;;;;;;;10.98;8.90;;;;;;;;;;5007994;28;20640;-72
2022/09/05 07:33:47;;;;;;;12.30;9.30;;;;;;;;;;5010771;28;20762;-73
2022/09/05 07:36:21;;;;;;;13.05;9.13;;;;;;;;;;5009802;28;20211;-72
2022/09/05 07:38:49;;;;;;;10.10;8.77;;;;;;;;;;5007300;28;20178;-73
2022/09/05 07:41:14;;;;;;;10.18;8.75;;;;;;;;;;5010069;28;20171;-72
2022/09/05 07:43:42;;;;;;;7.65;6.85;;;;;;;;;;5010344;28;20182;-72
2022/09/05 07:46:13;;;;;;;8.48;7.68;;;;;;;;;;5010821;28;20538;-73
2022/09/05 07:48:46;;;;;;;8.68;7.78;;;;;;;;;;5004624;28;20179;-73
2022/09/05 07:51:17;;;;;;;10.18;7.50;;;;;;;;;;5001849;28;20190;-72
2022/09/05 07:53:43;;;;;;;11.23;8.15;;;;;;;;;;5008629;28;20171;-74
2022/09/05 07:56:09;;;;;;;11.70;7.85;;;;;;;;;;5011399;28;20195;-72
2022/09/05 07:58:40;;;;;;;8.10;7.25;;;;;;;;;;5008024;28;20259;-72
2022/09/05 08:01:05;;;;;;;8.27;6.82;;;;;;;;;;5006561;28;20198;-72
2022/09/05 08:03:30;;;;;;;7.50;6.80;;;;;;;;;;5002246;28;20175;-74
2022/09/05 08:05:59;;;;;;;9.05;7.20;;;;;;;;;;5005974;28;20218;-74
2022/09/05 08:08:35;;;;;;;7.47;6.57;;;;;;;;;;5010058;28;20171;-74
2022/09/05 08:11:04;;;;;;;7.45;6.43;;;;;;;;;;5010278;28;20198;-74
2022/09/05 08:13:38;;;;;;;7.95;5.95;;;;;;;;;;5014495;28;20183;-72
2022/09/05 08:16:03;;;;;;;6.68;5.13;;;;;;;;;;5015300;28;20205;-73
2022/09/05 08:18:28;;;;;;;6.00;5.40;;;;;;;;;;5014933;28;20175;-73
2022/09/05 08:20:55;;;;;;;8.00;5.47;;;;;;;;;;5014754;28;20171;-73
2022/09/05 08:23:36;;;;;;;6.63;5.93;;;;;;;;;;5012975;28;20175;-73
2022/09/05 08:26:12;;;;;;;7.07;4.90;;;;;;;;;;5014867;28;20191;-73
2022/09/05 08:28:57;;;;;;;6.65;4.78;;;;;;;;;;5014622;28;20233;-74
2022/09/05 08:31:27;;;;;;;6.65;5.13;;;;;;;;;;5014428;28;20194;-74
2022/09/05 08:33:56;;;;;;;4.38;3.95;;;;;;;;;;5012998;28;20177;-73
2022/09/05 08:36:35;;;;;;;4.65;4.15;;;;;;;;;;5010492;28;20254;-73
2022/09/05 08:39:01;;;;;;;6.05;4.72;;;;;;;;;;5014656;28;20171;-73
2022/09/05 08:41:33;;;;;;;3.78;3.40;;;;;;;;;;5014198;28;20672;-74
2022/09/05 08:44:05;;;;;;;4.90;3.78;;;;;;;;;;5006541;28;20175;-73
2022/09/05 08:46:40;;;;;;;4.57;3.75;;;;;;;;;;5014484;28;20685;-73
2022/09/05 08:49:05;;;;;;;7.78;3.70;;;;;;;;;;5013324;28;20233;-73
2022/09/05 08:51:39;;;;;;;4.85;3.85;;;;;;;;;;5013639;28;20187;-74
2022/09/05 08:54:23;;;;;;;7.38;3.67;;;;;;;;;;5014546;28;20174;-73
2022/09/05 08:56:51;;;;;;;4.35;3.55;;;;;;;;;;5007657;28;20190;-73
2022/09/05 08:59:23;;;;;;;4.88;3.92;;;;;;;;;;5013880;28;20175;-73
2022/09/05 09:02:07;;;;;;;3.70;3.15;;;;;;;;;;5011241;28;20175;-73
2022/09/05 09:04:32;;;;;;;6.53;2.90;;;;;;;;;;5014037;28;20175;-73
2022/09/05 09:07:05;;;;;;;3.03;2.73;;;;;;;;;;5010922;28;20205;-74
2022/09/05 09:09:34;;;;;;;3.40;3.13;;;;;;;;;;5014784;28;20209;-73
2022/09/05 09:12:21;;;;;;;3.47;3.17;;;;;;;;;;5001500;28;20179;-72
2022/09/05 09:15:05;;;;;;;7.50;2.90;;;;;;;;;;5004110;28;20747;-72
2022/09/05 09:17:44;;;;;;;3.70;2.92;;;;;;;;;;5013716;28;20565;-72
2022/09/05 09:20:09;;;;;;;4.80;2.70;;;;;;;;;;5012283;28;20175;-72
2022/09/05 09:22:37;;;;;;;3.30;2.50;;;;;;;;;;5013437;28;20262;-72
2022/09/05 09:25:20;;;;;;;2.95;2.40;;;;;;;;;;5013918;28;20793;-72
2022/09/05 09:27:45;;;;;;;6.05;2.70;;;;;;;;;;5006260;28;20180;-72
2022/09/05 09:30:11;;;;;;;3.00;2.70;;;;;;;;;;5013176;28;20171;-72
2022/09/05 09:32:43;;;;;;;2.63;2.10;;;;;;;;;;5013357;28;20183;-72
2022/09/05 09:35:38;;;;;;;3.38;2.15;;;;;;;;;;5013296;28;20203;-72
2022/09/05 09:38:15;;;;;;;3.20;2.00;;;;;;;;;;5008638;28;20577;-72
2022/09/05 09:41:04;;;;;;;3.80;1.90;;;;;;;;;;5013156;28;20171;-73
2022/09/05 09:43:32;;;;;;;2.05;1.80;;;;;;;;;;5007321;28;20206;-72
2022/09/05 09:46:14;;;;;;;4.80;1.80;;;;;;;;;;5013402;28;20293;-72
2022/09/05 09:48:58;;;;;;;1.80;1.63;;;;;;;;;;5013247;28;20220;-72
2022/09/05 09:51:32;;;;;;;4.05;1.70;;;;;;;;;;5013093;28;20174;-72
2022/09/05 09:54:15;;;;;;;2.55;1.63;;;;;;;;;;5013474;28;20179;-72
2022/09/05 09:56:53;;;;;;;3.25;1.40;;;;;;;;;;5013542;28;20252;-72
2022/09/05 09:59:24;;;;;;;8.07;2.10;;;;;;;;;;5012998;28;20175;-73
2022/09/05 10:01:58;;;;;;;3.45;1.63;;;;;;;;;;5005529;28;20175;-73
2022/09/05 10:04:32;;;;;;;2.03;1.50;;;;;;;;;;5017236;28;20190;-72
2022/09/05 10:07:00;;;;;;;2.90;1.88;;;;;;;;;;5012725;28;20668;-72
2022/09/05 10:09:28;;;;;;;4.20;1.38;;;;;;;;;;5013613;28;20177;-71
2022/09/05 10:12:05;;;;;;;3.05;1.60;;;;;;;;;;5011963;28;20258;-71
2022/09/05 10:14:49;;;;;;;1.27;1.10;;;;;;;;;;5012658;28;20696;-74
2022/09/05 10:17:25;;;;;;;2.30;1.17;;;;;;;;;;5002976;28;20183;-71
2022/09/05 10:20:09;;;;;;;3.78;1.83;;;;;;;;;;5006480;28;20179;-71
2022/09/05 10:22:34;;;;;;;1.52;1.30;;;;;;;;;;5009930;28;20179;-71
2022/09/05 10:25:06;;;;;;;3.50;1.10;;;;;;;;;;5011562;28;20326;-72
2022/09/05 10:27:59;;;;;;;2.67;1.52;;;;;;;;;;5012655;28;20171;-71
2022/09/05 10:30:31;;;;;;;3.13;1.30;;;;;;;;;;5010834;28;20179;-71
2022/09/05 10:33:05;;;;;;;4.05;1.08;;;;;;;;;;5011023;28;20265;-71
2022/09/05 10:35:35;;;;;;;3.55;1.17;;;;;;;;;;5009616;28;20241;-71
2022/09/05 10:38:13;;;;;;;1.35;0.88;;;;;;;;;;5012498;28;20681;-71
2022/09/05 10:40:42;;;;;;;1.20;0.88;;;;;;;;;;5012237;28;20163;-73
2022/09/05 10:43:16;;;;;;;1.65;1.25;;;;;;;;;;5014133;28;20194;-73
2022/09/05 10:45:41;;;;;;;1.55;1.13;;;;;;;;;;5012249;28;20213;-72
2022/09/05 10:48:09;;;;;;;1.50;0.98;;;;;;;;;;5013120;28;20175;-74
2022/09/05 10:50:40;;;;;;;1.98;1.23;;;;;;;;;;5010080;28;20285;-73
2022/09/05 10:53:16;;;;;;;1.75;1.02;;;;;;;;;;5012139;28;20198;-73
2022/09/05 10:55:44;;;;;;;1.38;1.00;;;;;;;;;;5012063;28;20220;-72
2022/09/05 10:58:28;;;;;;;1.25;0.80;;;;;;;;;;5012155;28;20185;-72
2022/09/05 11:01:08;;;;;;;1.75;0.95;;;;;;;;;;5005056;28;20644;-72
2022/09/05 11:03:46;;;;;;;1.95;0.82;;;;;;;;;;5010312;28;20189;-72
2022/09/05 11:06:13;;;;;;;1.95;1.08;;;;;;;;;;5032419;23;20232;-70
2022/09/05 11:08:44;;;;;;;1.45;1.10;;;;;;;;;;5031966;28;20600;-70
2022/09/05 11:11:13;;;;;;;2.58;1.15;;;;;;;;;;5013462;28;20660;-70
2022/09/05 11:14:06;;;;;;;1.00;0.90;;;;;;;;;;5031433;28;20268;-71
2022/09/05 11:16:46;;;;;;;1.90;1.10;;;;;;;;;;5024534;28;20213;-70
2022/09/05 11:19:14;;;;;;;2.13;1.15;;;;;;;;;;5025650;28;20170;-69
2022/09/05 11:21:51;;;;;;;2.03;1.10;;;;;;;;;;5023819;28;20593;-70
2022/09/05 11:24:28;;;;;;;1.98;0.95;;;;;;;;;;5025930;28;20300;-70
2022/09/05 11:27:03;;;;;;;1.92;0.88;;;;;;;;;;5025838;28;20193;-70
2022/09/05 11:29:49;;;;;;;1.10;0.82;;;;;;;;;;5030705;28;20173;-70
2022/09/05 11:32:17;;;;;;;1.45;1.00;;;;;;;;;;5029610;28;20199;-68
2022/09/05 11:34:42;;;;;;;1.67;0.82;;;;;;;;;;5023066;28;20283;-68
2022/09/05 11:37:27;;;;;;;3.80;1.10;;;;;;;;;;5029719;28;20709;-68
2022/09/05 11:39:58;;;;;;;2.15;0.77;;;;;;;;;;4983985;28;20209;-68
2022/09/05 11:42:29;;;;;;;1.20;0.95;;;;;;;;;;5028895;28;20162;-68
2022/09/05 11:45:03;;;;;;;2.13;1.10;;;;;;;;;;5029908;28;20212;-69
2022/09/05 11:47:44;;;;;;;2.17;0.93;;;;;;;;;;5030156;28;20223;-69
2022/09/05 11:50:27;;;;;;;1.23;1.10;;;;;;;;;;5030164;28;20189;-69
2022/09/05 11:52:53;;;;;;;1.25;0.95;;;;;;;;;;5023709;28;20170;-69
2022/09/05 11:55:37;;;;;;;2.38;1.10;;;;;;;;;;5029724;28;20212;-70
2022/09/05 11:58:15;;;;;;;1.83;1.00;;;;;;;;;;5029725;28;20277;-69
2022/09/05 12:00:45;;;;;;;1.25;0.70;;;;;;;;;;5031508;28;20651;-69
2022/09/05 12:03:13;;;;;;;2.03;0.70;;;;;;;;;;5029871;28;20596;-69
2022/09/05 12:05:42;;;;;;;0.98;0.82;;;;;;;;;;5029543;28;20202;-69
2022/09/05 12:08:12;;;;;;;1.75;0.98;;;;;;;;;;5029837;28;20291;-68
2022/09/05 12:10:46;;;;;;;2.45;0.90;;;;;;;;;;5029678;28;20274;-69
2022/09/05 12:13:27;;;;;;;0.95;0.88;;;;;;;;;;5029637;28;20641;-69
2022/09/05 12:15:52;;;;;;;1.67;1.00;;;;;;;;;;5027050;28;20255;-69
2022/09/05 12:18:18;;;;;;;1.37;0.93;;;;;;;;;;5029729;28;20602;-68
2022/09/05 12:20:46;;;;;;;1.48;0.90;;;;;;;;;;5028534;28;20223;-68
2022/09/05 12:23:11;;;;;;;1.75;0.95;;;;;;;;;;5024948;28;20187;-68
2022/09/05 12:25:46;;;;;;;2.40;1.17;;;;;;;;;;5026138;28;20569;-69
2022/09/05 12:28:14;;;;;;;2.40;0.98;;;;;;;;;;5021660;28;20177;-68
2022/09/05 12:30:41;;;;;;;1.48;1.02;;;;;;;;;;5011174;28;20178;-69
2022/09/05 12:33:12;;;;;;;1.35;1.23;;;;;;;;;;5029147;28;20427;-69
2022/09/05 12:35:43;;;;;;;3.28;1.17;;;;;;;;;;5029513;28;20221;-69
2022/09/05 12:38:26;;;;;;;2.25;0.93;;;;;;;;;;5030048;28;20184;-69
2022/09/05 12:41:12;;;;;;;1.00;0.90;;;;;;;;;;5025984;28;20195;-69
2022/09/05 12:43:47;;;;;;;2.47;0.95;;;;;;;;;;5028576;28;20190;-70
2022/09/05 12:46:19;;;;;;;1.13;1.02;;;;;;;;;;5031113;28;20224;-69
2022/09/05 12:48:57;;;;;;;4.13;0.90;;;;;;;;;;5029859;28;20243;-70
2022/09/05 12:51:27;;;;;;;2.60;0.95;;;;;;;;;;5031964;28;20586;-70
2022/09/05 12:53:57;;;;;;;3.03;1.23;;;;;;;;;;5031794;28;20600;-70
2022/09/05 12:56:26;;;;;;;1.48;1.02;;;;;;;;;;5012468;28;20202;-70
2022/09/05 12:58:52;;;;;;;3.30;1.20;;;;;;;;;;5032884;28;20177;-70
2022/09/05 13:01:37;;;;;;;0.77;0.77;;;;;;;;;;5032656;28;20184;-71
2022/09/05 13:04:06;;;;;;;1.95;0.85;;;;;;;;;;5032074;28;20185;-70
2022/09/05 13:06:44;;;;;;;0.82;0.80;;;;;;;;;;5032295;28;20679;-68
2022/09/05 13:09:09;;;;;;;2.00;0.98;;;;;;;;;;5032377;28;20177;-68
2022/09/05 13:11:50;;;;;;;2.28;1.10;;;;;;;;;;5031793;28;20189;-69
2022/09/05 13:14:22;;;;;;;3.15;1.20;;;;;;;;;;5031719;28;20212;-69
2022/09/05 13:16:48;;;;;;;3.72;1.00;;;;;;;;;;5029673;28;20197;-69
2022/09/05 13:19:30;;;;;;;1.65;0.80;;;;;;;;;;5032491;28;20181;-69
2022/09/05 13:21:57;;;;;;;2.03;0.90;;;;;;;;;;5030133;28;20596;-69
2022/09/05 13:24:26;;;;;;;1.85;0.90;;;;;;;;;;5032403;28;20631;-69
2022/09/05 13:26:55;;;;;;;2.60;0.80;;;;;;;;;;5032561;28;20197;-69
2022/09/05 13:29:23;;;;;;;2.38;0.90;;;;;;;;;;5021048;28;20185;-69
2022/09/05 13:31:52;;;;;;;2.85;1.25;;;;;;;;;;5032033;28;20178;-69
2022/09/05 13:34:17;;;;;;;4.70;1.38;;;;;;;;;;5030847;28;20265;-69
2022/09/05 13:36:50;;;;;;;1.60;1.00;;;;;;;;;;5032961;28;20280;-69
2022/09/05 13:39:18;;;;;;;2.20;0.70;;;;;;;;;;5032482;28;20658;-69
2022/09/05 13:41:49;;;;;;;1.10;1.00;;;;;;;;;;5025725;28;20169;-69
2022/09/05 13:44:20;;;;;;;1.75;1.10;;;;;;;;;;5032777;28;20174;-69
2022/09/05 13:46:52;;;;;;;2.45;0.90;;;;;;;;;;5027418;28;20201;-69
2022/09/05 13:49:50;;;;;;;2.90;1.00;;;;;;;;;;5025655;28;20170;-68
2022/09/05 13:52:30;;;;;;;3.22;1.00;;;;;;;;;;4988306;28;20273;-69
2022/09/05 13:55:14;;;;;;;1.92;1.27;;;;;;;;;;5026011;28;20186;-69
2022/09/05 13:57:47;;;;;;;2.33;1.00;;;;;;;;;;5033591;28;20181;-69
2022/09/05 14:00:21;;;;;;;3.13;1.02;;;;;;;;;;5031760;28;20170;-68
2022/09/05 14:03:07;;;;;;;1.38;1.00;;;;;;;;;;5030386;28;20182;-68
2022/09/05 14:05:44;;;;;;;2.00;1.20;;;;;;;;;;5030574;28;20212;-68
2022/09/05 14:08:26;;;;;;;1.00;0.80;;;;;;;;;;5031147;28;20173;-68
2022/09/05 14:11:06;;;;;;;1.33;1.00;;;;;;;;;;5027240;28;20170;-68
2022/09/05 14:13:38;;;;;;;1.05;0.90;;;;;;;;;;5031042;28;20627;-69
2022/09/05 14:16:11;;;;;;;2.10;1.50;;;;;;;;;;5031208;28;20686;-68
2022/09/05 14:21:30;;;;;;;2.83;1.23;;;;;;;;;;5011910;28;20631;-68
2022/09/05 14:23:55;;;;;;;2.22;1.35;;;;;;;;;;5030900;28;20598;-68
2022/09/05 14:26:26;;;;;;;2.87;1.40;;;;;;;;;;5031221;28;20351;-68
2022/09/05 14:29:13;;;;;;;1.45;0.90;;;;;;;;;;5030821;28;20399;-68
2022/09/05 14:32:00;;;;;;;5.28;1.05;;;;;;;;;;5030583;28;20182;-68
2022/09/05 14:34:42;;;;;;;1.60;1.00;;;;;;;;;;5020903;28;20265;-68
2022/09/05 14:37:24;;;;;;;1.92;1.08;;;;;;;;;;5030801;28;20675;-68
2022/09/05 14:40:08;;;;;;;1.38;1.27;;;;;;;;;;5022816;28;20184;-68
2022/09/05 14:42:52;;;;;;;1.67;1.08;;;;;;;;;;5030775;28;20192;-68
2022/09/05 14:45:23;;;;;;;1.67;0.95;;;;;;;;;;5030230;28;20220;-68
2022/09/05 14:47:55;;;;;;;2.78;1.00;;;;;;;;;;5030963;28;20288;-68
2022/09/05 14:50:23;;;;;;;1.55;1.17;;;;;;;;;;5030367;28;20276;-68
2022/09/05 14:52:57;;;;;;;1.20;1.10;;;;;;;;;;5030809;28;20202;-68
2022/09/05 14:55:23;;;;;;;1.83;1.05;;;;;;;;;;5030448;28;20694;-69
2022/09/05 14:57:48;;;;;;;1.98;0.90;;;;;;;;;;5028838;28;20309;-68
2022/09/05 15:00:16;;;;;;;2.60;1.20;;;;;;;;;;5026666;28;20169;-68
2022/09/05 15:02:43;;;;;;;1.75;1.30;;;;;;;;;;5029321;28;20407;-68
2022/09/05 15:05:14;;;;;;;1.20;0.90;;;;;;;;;;5030357;28;20569;-69
2022/09/05 15:07:41;;;;;;;1.83;1.35;;;;;;;;;;5030342;28;20170;-69
2022/09/05 15:10:16;;;;;;;2.10;0.90;;;;;;;;;;5030595;28;20264;-68
2022/09/05 15:12:47;;;;;;;2.13;1.23;;;;;;;;;;5030372;28;20164;-68
2022/09/05 15:15:12;;;;;;;1.95;1.25;;;;;;;;;;5030352;28;20186;-67
2022/09/05 15:17:42;;;;;;;1.15;0.90;;;;;;;;;;5030212;28;20176;-69
2022/09/05 15:20:08;;;;;;;1.77;1.10;;;;;;;;;;5030161;28;20181;-68